Latest Coastal Weather Observations for Flinders Reef

IDQ60701

Issued at 5:45 am EST Friday 28 November 2014 (issued every 10 minutes, with the page automatically refreshed every 10 minutes)

About coastal observations | Map of coastal stations | Coastal observations for QLD | Marine services | Other Formats
Station Details ID: 200783 Name: FLINDERS REEF Lat: -17.72 Lon: 148.45 Height: 2.6 m
Data from the previous 72 hours. | See also: Recent months at Flinders Reef
Date/Time
EST
Temp

°C
Wind Pressure Rain
since 9am
mm
Weather Cloud Vis
km
Sea
Height
m
Swell
Dir
 
Speed
knots
Gust
knots
hPa Trend Height
m
Period
s
Dir
28/05:30am - ESE 17 19 1011.1 - - - - - - - - -
28/05:24am - ESE 16 - 1010.9 - - - - - - - - -
28/05:00am - ESE 16 19 1010.9 - - - - - - - - -
28/04:30am - E 16 19 1010.8 - - - - - - - - -
28/04:24am - E 16 - 1010.6 - - - - - - - - -
28/04:00am - E 18 21 1010.6 - - - - - - - - -
28/03:30am - E 18 20 1010.5 - - - - - - - - -
28/03:24am - E 17 - 1010.4 - - - - - - - - -
28/03:00am - E 17 20 1010.5 - - - - - - - - -
28/02:30am - E 16 18 1010.5 - - - - - - - - -
28/02:24am - E 16 - 1010.4 - - - - - - - - -
28/02:00am - ESE 16 19 1010.7 - - - - - - - - -
28/01:30am - ESE 17 18 1011.0 - - - - - - - - -
28/01:24am - E 16 - 1010.9 - - - - - - - - -
28/01:00am - ESE 16 19 1011.2 - - - - - - - - -
28/12:30am - E 16 18 1011.4 - - - - - - - - -
28/12:24am - E 15 - 1011.3 - - - - - - - - -
28/12:00am - ESE 16 20 1011.6 - - - - - - - - -
 
Date/Time
EST
Temp

°C
Wind Pressure Rain
since 9am
mm
Weather Cloud Vis
km
Sea
Height
m
Swell
Dir
 
Speed
knots
Gust
knots
hPa Trend Height
m
Period
s
Dir
27/11:30pm - ESE 15 18 1012.0 - - - - - - - - -
27/11:24pm - ESE 16 - 1011.9 - - - - - - - - -
27/11:00pm - ESE 15 18 1012.1 - - - - - - - - -
27/10:30pm - ESE 16 19 1012.4 - - - - - - - - -
27/10:24pm - ESE 16 - 1012.2 - - - - - - - - -
27/10:00pm - ESE 16 19 1012.3 - - - - - - - - -
27/09:30pm - ESE 16 19 1012.1 - - - - - - - - -
27/09:24pm - ESE 16 - 1012.0 - - - - - - - - -
27/09:00pm - ESE 17 19 1012.0 - - - - - - - - -
27/08:30pm - ESE 17 20 1011.7 - - - - - - - - -
27/08:24pm - ESE 17 - 1011.6 - - - - - - - - -
27/08:00pm - ESE 17 19 1011.8 - - - - - - - - -
27/07:30pm - E 10 15 1011.8 - - - - - - - - -
27/07:24pm - ENE 14 - 1011.6 - - - - - - - - -
27/07:10pm - ENE 20 25 1011.6 - - - - - - - - -
27/07:00pm - E 19 25 1011.4 - - - - - - - - -
27/06:30pm - SE 16 17 1011.2 - - - - - - - - -
27/06:24pm - SE 16 - 1011.1 - - - - - - - - -
27/06:00pm - SE 14 17 1011.1 - - - - - - - - -
27/05:30pm - SE 13 15 1010.9 - - - - - - - - -
27/05:24pm - SE 13 - 1010.7 - - - - - - - - -
27/05:00pm - SE 12 14 1010.6 - - - - - - - - -
27/04:30pm - SE 12 15 1010.3 - - - - - - - - -
27/04:24pm - SE 12 - 1010.2 - - - - - - - - -
27/04:00pm - SE 13 15 1010.1 - - - - - - - - -
27/03:30pm - ESE 13 16 1010.2 - - - - - - - - -
27/03:24pm - ESE 13 - 1010.1 - - - - - - - - -
27/03:00pm - ESE 12 14 1010.4 - - - - - - - - -
27/02:30pm - ESE 12 15 1010.4 - - - - - - - - -
27/02:24pm - ESE 12 - 1010.4 - - - - - - - - -
27/02:00pm - E 9 12 1010.7 - - - - - - - - -
27/01:30pm - SSE 9 11 1010.9 - - - - - - - - -
27/01:24pm - SSE 6 - 1010.9 - - - - - - - - -
27/01:00pm - S 7 8 1011.2 - - - - - - - - -
27/12:30pm - S 7 8 1011.4 - - - - - - - - -
27/12:24pm - S 7 - 1011.3 - - - - - - - - -
27/12:00pm - SE 7 9 1011.8 - - - - - - - - -
27/11:30am - SE 8 9 1012.1 - - - - - - - - -
27/11:24am - SE 8 - 1012.1 - - - - - - - - -
27/11:00am - SSE 10 12 1012.5 - - - - - - - - -
27/10:30am - SE 13 15 1012.8 - - - - - - - - -
27/10:24am - SE 12 - 1012.7 - - - - - - - - -
27/10:00am - SE 9 11 1013.0 - - - - - - - - -
27/09:30am - SE 12 13 1013.0 - - - - - - - - -
27/09:24am - SE 12 - 1012.9 - - - - - - - - -
27/09:00am - SE 10 12 1013.2 - - - - - - - - -
27/08:30am - SE 10 12 1013.3 - - - - - - - - -
27/08:24am - SE 10 - 1013.1 - - - - - - - - -
27/08:00am - SE 10 11 1013.0 - - - - - - - - -
27/07:30am - ESE 9 11 1013.1 - - - - - - - - -
27/07:24am - ESE 10 - 1013.0 - - - - - - - - -
27/07:00am - ESE 10 12 1013.1 - - - - - - - - -
27/06:30am - ESE 12 14 1012.7 - - - - - - - - -
27/06:24am - ESE 11 - 1012.5 - - - - - - - - -
27/06:00am - ESE 12 15 1012.4 - - - - - - - - -
27/05:30am - E 14 16 1012.1 - - - - - - - - -
27/05:24am - E 14 - 1011.8 - - - - - - - - -
27/05:00am - E 13 15 1011.6 - - - - - - - - -
27/04:30am - E 14 16 1011.4 - - - - - - - - -
27/04:24am - E 14 - 1011.3 - - - - - - - - -
27/04:00am - E 14 16 1011.1 - - - - - - - - -
27/03:30am - E 15 17 1011.0 - - - - - - - - -
27/03:24am - E 15 - 1010.9 - - - - - - - - -
27/03:00am - E 15 17 1010.8 - - - - - - - - -
27/02:30am - E 14 16 1011.0 - - - - - - - - -
27/02:24am - E 14 - 1010.8 - - - - - - - - -
27/02:00am - E 14 17 1011.0 - - - - - - - - -
27/01:30am - E 15 17 1011.1 - - - - - - - - -
27/01:24am - E 15 - 1011.0 - - - - - - - - -
27/01:00am - E 15 17 1011.3 - - - - - - - - -
27/12:30am - E 16 19 1011.5 - - - - - - - - -
27/12:24am - E 16 - 1011.3 - - - - - - - - -
27/12:00am - E 17 19 1011.6 - - - - - - - - -
 
Date/Time
EST
Temp

°C
Wind Pressure Rain
since 9am
mm
Weather Cloud Vis
km
Sea
Height
m
Swell
Dir
 
Speed
knots
Gust
knots
hPa Trend Height
m
Period
s
Dir
26/11:30pm - E 16 20 1012.0 - - - - - - - - -
26/11:24pm - E 16 - 1012.1 - - - - - - - - -
26/11:00pm - E 18 20 1012.4 - - - - - - - - -
26/10:30pm - E 17 19 1012.6 - - - - - - - - -
26/10:24pm - E 18 - 1012.6 - - - - - - - - -
26/10:00pm - E 18 21 1012.8 - - - - - - - - -
26/09:30pm - E 18 21 1012.7 - - - - - - - - -
26/09:24pm - E 18 - 1012.7 - - - - - - - - -
26/09:00pm - E 17 20 1012.6 - - - - - - - - -
26/08:30pm - E 17 20 1012.4 - - - - - - - - -
26/08:24pm - E 17 - 1012.3 - - - - - - - - -
26/08:00pm - E 18 21 1012.1 - - - - - - - - -
26/07:30pm - E 17 19 1011.9 - - - - - - - - -
26/07:24pm - E 17 - 1011.7 - - - - - - - - -
26/07:00pm - E 17 19 1011.8 - - - - - - - - -
26/06:30pm - E 16 18 1011.5 - - - - - - - - -
26/06:24pm - E 17 - 1011.4 - - - - - - - - -
26/06:00pm - E 15 19 1011.2 - - - - - - - - -
26/05:30pm - E 17 19 1011.1 - - - - - - - - -
26/05:24pm - E 17 - 1011.0 - - - - - - - - -
26/05:00pm - E 18 19 1010.9 - - - - - - - - -
26/04:30pm - E 15 17 1010.6 - - - - - - - - -
26/04:24pm - E 16 - 1010.4 - - - - - - - - -
26/04:00pm - E 16 19 1010.4 - - - - - - - - -
26/03:30pm - E 18 20 1010.3 - - - - - - - - -
26/03:24pm - E 18 - 1010.2 - - - - - - - - -
26/03:00pm - E 17 20 1010.4 - - - - - - - - -
26/02:30pm - E 18 22 1010.3 - - - - - - - - -
26/02:24pm - E 18 - 1010.4 - - - - - - - - -
26/02:00pm - E 19 21 1010.6 - - - - - - - - -
26/01:30pm - E 19 21 1011.0 - - - - - - - - -
26/01:24pm - E 19 - 1011.0 - - - - - - - - -
26/01:00pm - E 18 21 1011.2 - - - - - - - - -
26/12:30pm - E 20 23 1011.2 - - - - - - - - -
26/12:24pm - E 20 - 1011.2 - - - - - - - - -
26/12:00pm - E 21 24 1011.6 - - - - - - - - -
26/11:30am - E 22 25 1011.8 - - - - - - - - -
26/11:24am - E 21 - 1011.8 - - - - - - - - -
26/11:00am - E 19 27 1012.1 - - - - - - - - -
26/10:30am - E 15 18 1012.4 - - - - - - - - -
26/10:24am - E 16 - 1012.4 - - - - - - - - -
26/10:00am - E 17 24 1012.7 - - - - - - - - -
26/09:30am - E 16 18 1012.7 - - - - - - - - -
26/09:24am - E 15 - 1012.6 - - - - - - - - -
26/09:00am - E 17 19 1012.5 - - - - - - - - -
26/08:30am - E 16 17 1012.2 - - - - - - - - -
26/08:24am - E 16 - 1012.0 - - - - - - - - -
26/08:00am - E 17 19 1012.0 - - - - - - - - -
26/07:30am - E 15 18 1012.0 - - - - - - - - -
26/07:24am - E 16 - 1011.8 - - - - - - - - -
26/07:00am - E 17 19 1011.5 - - - - - - - - -
26/06:30am - E 16 19 1011.2 - - - - - - - - -
26/06:24am - E 16 - 1011.0 - - - - - - - - -
26/06:00am - E 14 16 1011.0 - - - - - - - - -
26/05:30am - ENE 16 17 1010.5 - - - - - - - - -
26/05:24am - E 15 - 1010.3 - - - - - - - - -
26/05:00am - E 14 16 1010.3 - - - - - - - - -
26/04:30am - E 14 17 1010.1 - - - - - - - - -
26/04:24am - E 15 - 1010.0 - - - - - - - - -
26/04:00am - E 16 17 1009.8 - - - - - - - - -
26/03:30am - E 16 19 1009.9 - - - - - - - - -
26/03:24am - E 16 - 1009.8 - - - - - - - - -
26/03:00am - E 16 18 1009.9 - - - - - - - - -
26/02:30am - E 13 15 1010.0 - - - - - - - - -
26/02:24am - E 14 - 1010.0 - - - - - - - - -
26/02:00am - E 14 16 1010.2 - - - - - - - - -
26/01:30am - E 15 17 1010.3 - - - - - - - - -
26/01:24am - E 16 - 1010.3 - - - - - - - - -
26/01:00am - E 16 18 1010.7 - - - - - - - - -
26/12:30am - E 13 15 1011.2 - - - - - - - - -
26/12:24am - E 14 - 1011.2 - - - - - - - - -
26/12:00am - E 15 16 1011.5 - - - - - - - - -
 
Date/Time
EST
Temp

°C
Wind Pressure Rain
since 9am
mm
Weather Cloud Vis
km
Sea
Height
m
Swell
Dir
 
Speed
knots
Gust
knots
hPa Trend Height
m
Period
s
Dir
25/11:30pm - E 15 18 1011.8 - - - - - - - - -
25/11:24pm - E 14 - 1011.8 - - - - - - - - -
25/11:00pm - E 15 17 1012.2 - - - - - - - - -
25/10:30pm - E 15 18 1012.5 - - - - - - - - -
25/10:24pm - E 15 - 1012.4 - - - - - - - - -
25/10:00pm - E 14 16 1012.4 - - - - - - - - -
25/09:30pm - E 12 14 1012.3 - - - - - - - - -
25/09:24pm - E 12 - 1012.1 - - - - - - - - -
25/09:00pm - ESE 13 15 1011.9 - - - - - - - - -
25/08:30pm - ESE 13 14 1011.5 - - - - - - - - -
25/08:24pm - ESE 14 - 1011.4 - - - - - - - - -
25/08:00pm - ESE 13 15 1011.4 - - - - - - - - -
25/07:30pm - ESE 13 15 1011.1 - - - - - - - - -
25/07:24pm - ESE 14 - 1011.0 - - - - - - - - -
25/07:00pm - ESE 12 14 1010.9 - - - - - - - - -
25/06:30pm - ESE 13 14 1010.7 - - - - - - - - -
25/06:24pm - ESE 13 - 1010.6 - - - - - - - - -
25/06:00pm - ESE 12 14 1010.5 - - - - - - - - -
25/05:30pm - SE 13 15 1010.4 - - - - - - - - -
25/05:24pm - SE 13 - 1010.2 - - - - - - - - -
25/05:00pm - SE 13 15 1010.3 - - - - - - - - -
25/04:30pm - SE 14 16 1010.1 - - - - - - - - -
25/04:24pm - SE 14 - 1010.0 - - - - - - - - -
25/04:00pm - SE 14 15 1010.1 - - - - - - - - -
25/03:30pm - SE 13 15 1010.2 - - - - - - - - -
25/03:24pm - SE 13 - 1010.0 - - - - - - - - -
25/03:00pm - SE 13 15 1010.4 - - - - - - - - -
25/02:30pm - SE 12 15 1010.7 - - - - - - - - -
25/02:24pm - SE 12 - 1010.6 - - - - - - - - -
25/02:00pm - SE 13 15 1010.7 - - - - - - - - -
25/01:30pm - SE 13 15 1011.0 - - - - - - - - -
25/01:24pm - SE 12 - 1011.0 - - - - - - - - -
25/01:00pm - SE 13 16 1011.2 - - - - - - - - -
25/12:30pm - ESE 14 15 1011.6 - - - - - - - - -
25/12:24pm - ESE 13 - 1011.5 - - - - - - - - -
25/12:00pm - ESE 13 16 1011.9 - - - - - - - - -
25/11:30am - ESE 15 16 1012.0 - - - - - - - - -
25/11:24am - E 15 - 1012.0 - - - - - - - - -
25/11:00am - ESE 15 17 1012.2 - - - - - - - - -
25/10:30am - E 13 15 1012.4 - - - - - - - - -
25/10:24am - E 13 - 1012.3 - - - - - - - - -
25/10:00am - E 15 17 1012.5 - - - - - - - - -
25/09:30am - E 15 19 1012.4 - - - - - - - - -
25/09:24am - E 16 - 1012.4 - - - - - - - - -
25/09:00am - E 16 18 1012.5 - - - - - - - - -
25/08:30am - E 14 17 1012.5 - - - - - - - - -
25/08:24am - ESE 14 - 1012.4 - - - - - - - - -
25/08:00am - ESE 13 15 1012.5 - - - - - - - - -
25/07:30am - ESE 13 15 1012.4 - - - - - - - - -
25/07:24am - ESE 13 - 1012.4 - - - - - - - - -
25/07:00am - ESE 14 16 1012.3 - - - - - - - - -
25/06:30am - ESE 13 15 1012.3 - - - - - - - - -
25/06:24am - ESE 13 - 1012.2 - - - - - - - - -
25/06:00am - ESE 11 14 1012.0 - - - - - - - - -

Other Formats:

Comma delimited format used in spreadsheet applications
http://www.bom.gov.au/fwo/IDQ60701/IDQ60701.94290.axf

JavaScript Object Notation format (JSON) in row-major order
http://www.bom.gov.au/fwo/IDQ60701/IDQ60701.94290.json